createdAt,value
2022-12-22T00:00:33.821Z,100383.72
2022-12-22T00:03:18.888Z,100381.88
2022-12-22T00:06:08.419Z,100378.94
2022-12-22T00:08:53.698Z,100385.78
2022-12-22T00:11:39.415Z,100390.88
2022-12-22T00:14:26.811Z,100392.50
2022-12-22T00:17:11.656Z,100388.22
2022-12-22T00:19:56.993Z,100378.81
2022-12-22T00:22:44.058Z,100380.41
2022-12-22T00:25:32.406Z,100381.34
2022-12-22T00:28:17.411Z,100379.63
2022-12-22T00:31:03.188Z,100374.09
2022-12-22T00:33:48.690Z,100376.91
2022-12-22T00:36:34.503Z,100378.72
2022-12-22T00:39:21.065Z,100374.44
2022-12-22T00:42:05.973Z,100366.69
2022-12-22T00:44:50.604Z,100360.72
2022-12-22T00:47:44.014Z,100353.16
2022-12-22T00:50:29.909Z,100347.88
2022-12-22T00:53:15.715Z,100353.75
2022-12-22T00:56:02.269Z,100351.28
2022-12-22T00:58:47.747Z,100345.41
2022-12-22T01:01:32.733Z,100349.72
2022-12-22T01:04:17.995Z,100348.91
2022-12-22T01:07:03.201Z,100348.91
2022-12-22T01:09:48.773Z,100350.63
2022-12-22T01:12:38.733Z,100346.25
2022-12-22T01:15:28.802Z,100347.97
2022-12-22T01:18:13.844Z,100344.53
2022-12-22T01:20:59.176Z,100346.22
2022-12-22T01:23:44.532Z,100337.75
2022-12-22T01:26:29.827Z,100337.69
2022-12-22T01:29:16.647Z,100331.66
2022-12-22T01:32:02.023Z,100328.28
2022-12-22T01:34:46.853Z,100324.69
2022-12-22T01:37:31.729Z,100323.09
2022-12-22T01:40:16.533Z,100317.88
2022-12-22T01:43:01.434Z,100319.72
2022-12-22T01:45:50.506Z,100305.19
2022-12-22T01:48:36.960Z,100302.53
2022-12-22T01:51:25.954Z,100304.97
2022-12-22T01:54:11.799Z,100296.53
2022-12-22T01:56:57.600Z,100294.72
2022-12-22T01:59:43.122Z,100284.47
2022-12-22T02:02:30.018Z,100285.38
2022-12-22T02:05:18.565Z,100285.41
2022-12-22T02:08:27.493Z,100277.72
2022-12-22T02:11:25.882Z,100278.47
2022-12-22T02:14:29.483Z,100281.69
2022-12-22T02:17:25.236Z,100275.81
2022-12-22T02:20:38.535Z,100268.22
2022-12-22T02:23:32.415Z,100264.81
2022-12-22T02:26:23.737Z,100261.34
2022-12-22T02:29:10.990Z,100252.84
2022-12-22T02:31:57.315Z,100245.91
2022-12-22T02:34:42.552Z,100239.16
2022-12-22T02:37:46.575Z,100228.84
2022-12-22T02:40:41.361Z,100242.47
2022-12-22T02:43:41.129Z,100227.03
2022-12-22T02:46:34.903Z,100228.81
2022-12-22T02:49:29.268Z,100223.69
2022-12-22T02:52:21.323Z,100226.97
2022-12-22T02:55:06.061Z,100218.50
2022-12-22T02:57:50.957Z,100221.09
2022-12-22T03:00:36.305Z,100219.72
2022-12-22T03:03:23.386Z,100209.63
2022-12-22T03:06:08.687Z,100202.28
2022-12-22T03:08:53.373Z,100209.78
2022-12-22T03:11:38.150Z,100205.72
2022-12-22T03:14:23.510Z,100202.19
2022-12-22T03:17:08.197Z,100212.59
2022-12-22T03:19:54.832Z,100208.31
2022-12-22T03:22:40.046Z,100213.25
2022-12-22T03:25:25.897Z,100203.09
2022-12-22T03:27:53.335Z,100199.72
2022-12-22T03:30:21.277Z,100201.00
2022-12-22T03:32:48.724Z,100197.09
2022-12-22T03:35:17.486Z,100191.94
2022-12-22T03:37:44.878Z,100186.91
2022-12-22T03:40:12.709Z,100187.53
2022-12-22T03:43:03.141Z,100190.09
2022-12-22T03:45:48.053Z,100179.03
2022-12-22T03:48:15.527Z,100180.84
2022-12-22T03:50:44.503Z,100167.94
2022-12-22T03:53:11.931Z,100168.84
2022-12-22T03:55:39.340Z,100162.94
2022-12-22T03:58:06.782Z,100165.41
2022-12-22T04:00:34.252Z,100153.34
2022-12-22T04:03:01.897Z,100145.72
2022-12-22T04:05:29.447Z,100132.91
2022-12-22T04:07:58.253Z,100127.69
2022-12-22T04:10:43.449Z,100129.47
2022-12-22T04:13:10.885Z,100121.69
2022-12-22T04:15:38.319Z,100124.25
2022-12-22T04:18:05.874Z,100122.63
2022-12-22T04:20:33.271Z,100123.44
2022-12-22T04:23:02.396Z,100122.63
2022-12-22T04:25:29.870Z,100128.59
2022-12-22T04:27:57.332Z,100130.38
2022-12-22T04:30:24.804Z,100138.88
2022-12-22T04:32:52.267Z,100124.25
2022-12-22T04:35:19.777Z,100122.53
2022-12-22T04:37:47.198Z,100113.03
2022-12-22T04:40:16.242Z,100108.03
2022-12-22T04:42:43.684Z,100107.16
2022-12-22T04:45:11.940Z,100111.41
2022-12-22T04:47:39.754Z,100106.16
2022-12-22T04:50:08.299Z,100100.28
2022-12-22T04:52:35.758Z,100103.66
2022-12-22T04:55:03.158Z,100092.63
2022-12-22T04:57:35.469Z,100090.03
2022-12-22T05:00:09.806Z,100089.13
2022-12-22T05:02:37.398Z,100083.16
2022-12-22T05:05:05.206Z,100080.59
2022-12-22T05:07:32.620Z,100071.94
2022-12-22T05:10:00.053Z,100071.13
2022-12-22T05:12:44.841Z,100073.56
2022-12-22T05:15:13.578Z,100066.88
2022-12-22T05:17:41.077Z,100063.34
2022-12-22T05:20:09.887Z,100062.59
2022-12-22T05:22:37.325Z,100059.16
2022-12-22T05:25:05.207Z,100063.22
2022-12-22T05:27:32.666Z,100061.69
2022-12-22T05:30:00.110Z,100052.22
2022-12-22T05:32:29.133Z,100048.88
2022-12-22T05:34:56.577Z,100045.47
2022-12-22T05:37:24.111Z,100038.63
2022-12-22T05:39:51.577Z,100037.75
2022-12-22T05:42:35.781Z,100032.59
2022-12-22T05:45:05.801Z,100023.16
2022-12-22T05:47:34.641Z,100030.03
2022-12-22T05:50:02.134Z,100023.16
2022-12-22T05:52:29.683Z,100025.75
2022-12-22T05:54:57.113Z,100015.44
2022-12-22T05:57:24.735Z,100015.47
2022-12-22T05:59:52.171Z,100015.44
2022-12-22T06:02:19.734Z,100018.03
2022-12-22T06:04:48.715Z,100008.56
2022-12-22T06:07:16.160Z,100007.72
2022-12-22T06:09:43.595Z,100003.44
2022-12-22T06:12:11.246Z,99997.44
2022-12-22T06:14:38.698Z,99992.28
2022-12-22T06:17:06.433Z,99992.28
2022-12-22T06:19:33.853Z,99990.56
2022-12-22T06:22:02.752Z,99984.56
2022-12-22T06:24:30.172Z,99979.44
2022-12-22T06:26:57.608Z,99978.56
2022-12-22T06:29:25.153Z,99981.16
2022-12-22T06:31:52.611Z,99966.56
2022-12-22T06:34:21.269Z,99969.13
2022-12-22T06:36:49.252Z,99970.00
2022-12-22T06:39:18.464Z,99970.00
2022-12-22T06:42:03.567Z,99970.00
2022-12-22T06:44:31.246Z,99963.13
2022-12-22T06:46:58.714Z,99961.41
2022-12-22T06:49:26.362Z,99966.53
2022-12-22T06:51:53.852Z,99963.97
2022-12-22T06:54:26.329Z,99967.41
2022-12-22T06:56:54.169Z,99957.97
2022-12-22T06:59:21.565Z,99963.97
2022-12-22T07:01:49.109Z,99966.56
2022-12-22T07:04:20.626Z,99967.38
2022-12-22T07:06:48.177Z,99967.41
2022-12-22T07:09:15.633Z,99968.28
2022-12-22T07:11:44.388Z,99953.69
2022-12-22T07:14:12.099Z,99954.56
2022-12-22T07:16:39.623Z,99952.81
2022-12-22T07:19:07.112Z,99945.91
2022-12-22T07:21:34.599Z,99939.09
2022-12-22T07:24:02.020Z,99939.94
2022-12-22T07:26:29.548Z,99929.13
2022-12-22T07:28:58.358Z,99933.97
2022-12-22T07:31:26.024Z,99925.59
2022-12-22T07:33:53.484Z,99931.31
2022-12-22T07:36:21.719Z,99928.41
2022-12-22T07:38:51.031Z,99926.78
2022-12-22T07:41:40.071Z,99933.78
2022-12-22T07:44:08.902Z,99929.50
2022-12-22T07:46:38.500Z,99933.84
2022-12-22T07:49:24.515Z,99927.00
2022-12-22T07:51:52.559Z,99923.63
2022-12-22T07:54:24.696Z,99923.63
2022-12-22T07:56:52.170Z,99911.56
2022-12-22T07:59:21.259Z,99911.56
2022-12-22T08:01:48.831Z,99911.56
2022-12-22T08:04:16.740Z,99914.19
2022-12-22T08:06:44.385Z,99913.28
2022-12-22T08:09:16.499Z,99908.97
2022-12-22T08:11:43.988Z,99903.84
2022-12-22T08:14:11.396Z,99904.75
2022-12-22T08:16:40.307Z,99901.28
2022-12-22T08:19:07.994Z,99891.78
2022-12-22T08:21:35.494Z,99889.25
2022-12-22T08:24:03.104Z,99894.38
2022-12-22T08:26:36.261Z,99891.81
2022-12-22T08:29:08.441Z,99890.13
2022-12-22T08:31:36.489Z,99890.09
2022-12-22T08:34:08.622Z,99885.75
2022-12-22T08:36:42.155Z,99879.78
2022-12-22T08:39:09.793Z,99883.19
2022-12-22T08:41:52.789Z,99879.72
2022-12-22T08:44:22.828Z,99873.69
2022-12-22T08:46:50.707Z,99875.41
2022-12-22T08:49:20.501Z,99868.56
2022-12-22T08:51:48.563Z,99864.22
2022-12-22T08:54:16.429Z,99865.09
2022-12-22T08:56:44.199Z,99866.03
2022-12-22T08:59:11.871Z,99865.94
2022-12-22T09:01:42.722Z,99858.16
2022-12-22T09:04:11.031Z,99857.25
2022-12-22T09:06:41.351Z,99847.66
2022-12-22T09:09:11.029Z,99848.19
2022-12-22T09:11:39.567Z,99842.19
2022-12-22T09:14:08.217Z,99835.66
2022-12-22T09:16:36.268Z,99835.59
2022-12-22T09:19:04.651Z,99829.72
2022-12-22T09:21:32.110Z,99839.09
2022-12-22T09:24:00.889Z,99833.19
2022-12-22T09:26:30.009Z,99835.69
2022-12-22T09:28:58.707Z,99841.06
2022-12-22T09:31:27.218Z,99830.75
2022-12-22T09:33:54.831Z,99832.41
2022-12-22T09:36:24.961Z,99833.13
2022-12-22T09:38:52.723Z,99826.38
2022-12-22T09:41:27.375Z,99835.22
2022-12-22T09:43:56.291Z,99828.53
2022-12-22T09:46:26.088Z,99823.47
2022-12-22T09:48:55.078Z,99818.50
2022-12-22T09:51:27.062Z,99822.19
2022-12-22T09:53:58.894Z,99819.84
2022-12-22T09:56:29.999Z,99823.88
2022-12-22T09:58:58.159Z,99810.94
2022-12-22T10:01:38.514Z,99811.63
2022-12-22T10:04:15.807Z,99806.53
2022-12-22T10:06:52.446Z,99813.38
2022-12-22T10:12:15.995Z,99808.16
2022-12-22T10:14:45.136Z,99805.69
2022-12-22T10:17:17.524Z,99800.59
2022-12-22T10:19:46.219Z,99795.41
2022-12-22T10:22:23.858Z,99788.47
2022-12-22T10:24:51.658Z,99796.09
2022-12-22T10:27:28.483Z,99785.75
2022-12-22T10:30:21.397Z,99787.72
2022-12-22T10:33:03.783Z,99773.06
2022-12-22T10:35:49.779Z,99781.22
2022-12-22T10:38:22.400Z,99772.50
2022-12-22T10:40:58.234Z,99772.19
2022-12-22T10:43:33.400Z,99772.03
2022-12-22T10:46:01.953Z,99768.50
2022-12-22T10:48:31.616Z,99762.50
2022-12-22T10:51:00.524Z,99758.41
2022-12-22T10:53:43.980Z,99754.81
2022-12-22T10:56:22.422Z,99759.06
2022-12-22T10:58:53.115Z,99763.50
2022-12-22T11:01:30.820Z,99759.03
2022-12-22T11:03:59.524Z,99760.78
2022-12-22T11:06:27.153Z,99757.31
2022-12-22T11:09:05.660Z,99756.47
2022-12-22T11:11:47.659Z,99749.09
2022-12-22T11:14:28.673Z,99751.38
2022-12-22T11:17:03.734Z,99742.25
2022-12-22T11:19:49.841Z,99739.44
2022-12-22T11:22:29.508Z,99744.47
2022-12-22T11:25:16.086Z,99728.06
2022-12-22T11:27:54.768Z,99728.88
2022-12-22T11:30:32.145Z,99732.56
2022-12-22T11:33:15.953Z,99739.19
2022-12-22T11:35:52.850Z,99731.50
2022-12-22T11:38:27.089Z,99722.97
2022-12-22T11:41:01.799Z,99724.59
2022-12-22T11:43:42.220Z,99727.03
2022-12-22T11:46:22.232Z,99720.22
2022-12-22T11:49:06.489Z,99721.94
2022-12-22T11:51:51.794Z,99729.00
2022-12-22T11:54:42.317Z,99715.13
2022-12-22T11:57:23.562Z,99716.88
2022-12-22T11:59:58.437Z,99714.47
2022-12-22T12:03:01.135Z,99715.00
2022-12-22T12:06:09.437Z,99718.78
2022-12-22T12:08:50.916Z,99710.31
2022-12-22T12:11:25.129Z,99709.06
2022-12-22T12:14:02.791Z,99701.22
2022-12-22T12:16:38.487Z,99703.88
2022-12-22T12:19:33.104Z,99705.69
2022-12-22T12:22:05.485Z,99704.66
2022-12-22T12:24:50.869Z,99714.13
2022-12-22T12:27:36.306Z,99711.66
2022-12-22T12:30:36.845Z,99703.84
2022-12-22T12:32:59.199Z,99709.81
2022-12-22T12:35:44.031Z,99711.72
2022-12-22T12:38:56.424Z,99711.78
2022-12-22T12:41:11.014Z,99712.31
2022-12-22T12:43:39.040Z,99699.41
2022-12-22T12:46:40.070Z,99708.16
2022-12-22T12:49:49.410Z,99702.88
2022-12-22T12:52:18.188Z,99697.66
2022-12-22T12:54:47.175Z,99706.56
2022-12-22T12:57:29.315Z,99690.78
2022-12-22T12:59:58.799Z,99685.56
2022-12-22T13:02:38.252Z,99689.06
2022-12-22T13:05:29.393Z,99702.97
2022-12-22T13:08:29.473Z,99694.22
2022-12-22T13:12:10.461Z,99714.06
2022-12-22T13:14:54.919Z,99718.31
2022-12-22T13:17:41.710Z,99713.97
2022-12-22T13:20:15.697Z,99719.38
2022-12-22T13:22:44.840Z,99722.69
2022-12-22T13:25:17.311Z,99721.81
2022-12-22T13:27:44.936Z,99730.56
2022-12-22T13:30:15.747Z,99732.28
2022-12-22T13:32:45.938Z,99741.88
2022-12-22T13:35:38.508Z,99740.09
2022-12-22T13:38:06.899Z,99741.59
2022-12-22T13:40:43.249Z,99743.50
2022-12-22T13:43:13.830Z,99744.31
2022-12-22T13:45:44.955Z,99745.97
2022-12-22T13:48:17.105Z,99754.47
2022-12-22T13:50:48.123Z,99756.22
2022-12-22T13:53:49.576Z,99757.97
2022-12-22T13:56:14.143Z,99766.75
2022-12-22T13:58:45.906Z,99771.78
2022-12-22T14:01:19.364Z,99767.28
2022-12-22T14:04:00.198Z,99761.28
2022-12-22T14:06:31.807Z,99768.09
2022-12-22T14:09:18.224Z,99762.97
2022-12-22T14:11:52.525Z,99764.81
2022-12-22T14:14:24.696Z,99779.34
2022-12-22T14:16:54.065Z,99777.72
2022-12-22T14:19:23.568Z,99788.94
2022-12-22T14:21:59.767Z,99794.00
2022-12-22T14:24:33.244Z,99796.81
2022-12-22T14:27:05.194Z,99803.88
2022-12-22T14:29:32.748Z,99803.25
2022-12-22T14:32:02.653Z,99802.22
2022-12-22T14:34:32.998Z,99803.31
2022-12-22T14:37:01.611Z,99805.81
2022-12-22T14:39:31.842Z,99817.03
2022-12-22T14:42:02.563Z,99823.16
2022-12-22T14:44:34.592Z,99825.84
2022-12-22T14:47:08.475Z,99829.31
2022-12-22T14:49:36.582Z,99829.28
2022-12-22T14:52:15.137Z,99825.69
2022-12-22T14:54:47.416Z,99828.97
2022-12-22T14:57:28.975Z,99830.69
2022-12-22T15:00:05.748Z,99839.13
2022-12-22T15:02:39.509Z,99844.50
2022-12-22T15:05:25.003Z,99859.78
2022-12-22T15:08:05.237Z,99852.97
2022-12-22T15:10:39.610Z,99859.03
2022-12-22T15:13:23.522Z,99858.94
2022-12-22T15:15:53.003Z,99867.50
2022-12-22T15:18:26.610Z,99857.97
2022-12-22T15:20:54.374Z,99872.88
2022-12-22T15:23:21.866Z,99873.66
2022-12-22T15:25:49.397Z,99887.47
2022-12-22T15:28:17.241Z,99885.03
2022-12-22T15:30:44.924Z,99893.56
2022-12-22T15:33:16.441Z,99900.38
2022-12-22T15:35:44.604Z,99903.00
2022-12-22T15:38:14.827Z,99914.16
2022-12-22T15:40:42.541Z,99914.19
2022-12-22T15:43:28.897Z,99920.22
2022-12-22T15:45:58.088Z,99919.28
2022-12-22T15:48:30.219Z,99927.06
2022-12-22T15:50:58.573Z,99933.09
2022-12-22T15:53:26.278Z,99923.69
2022-12-22T15:55:58.460Z,99928.78
2022-12-22T15:58:28.975Z,99934.78
2022-12-22T16:00:56.645Z,99942.50
2022-12-22T16:03:24.227Z,99942.47
2022-12-22T16:05:54.463Z,99958.75
2022-12-22T16:08:28.664Z,99962.06
2022-12-22T16:10:56.131Z,99969.72
2022-12-22T16:13:27.283Z,99981.78
2022-12-22T16:15:57.047Z,99969.81
2022-12-22T16:18:24.567Z,99973.16
2022-12-22T16:20:53.530Z,99986.84
2022-12-22T16:23:24.288Z,99969.03
2022-12-22T16:25:58.769Z,99972.47
2022-12-22T16:28:28.859Z,99974.22
2022-12-22T16:30:56.414Z,99983.59
2022-12-22T16:33:23.947Z,99990.56
2022-12-22T16:35:52.661Z,99989.63
2022-12-22T16:38:20.379Z,100009.25
2022-12-22T16:40:49.895Z,100005.91
2022-12-22T16:46:12.861Z,100015.31
2022-12-22T16:48:46.518Z,100013.66
2022-12-22T16:51:19.776Z,100014.59
2022-12-22T16:53:47.754Z,100012.00
2022-12-22T16:56:18.664Z,100014.59
2022-12-22T16:58:46.585Z,100008.59
2022-12-22T17:01:26.164Z,100016.31
2022-12-22T17:03:54.005Z,100021.47
2022-12-22T17:06:22.873Z,100019.72
2022-12-22T17:08:50.596Z,100033.44
2022-12-22T17:11:20.930Z,100035.13
2022-12-22T17:13:48.817Z,100042.75
2022-12-22T17:16:23.847Z,100048.78
2022-12-22T17:18:51.561Z,100047.91
2022-12-22T17:21:21.288Z,100050.31
2022-12-22T17:23:52.130Z,100046.25
2022-12-22T17:26:21.965Z,100038.63
2022-12-22T17:28:50.145Z,100039.47
2022-12-22T17:31:20.348Z,100057.38
2022-12-22T17:33:48.473Z,100059.06
2022-12-22T17:36:29.173Z,100057.38
2022-12-22T17:38:58.769Z,100065.72
2022-12-22T17:41:26.525Z,100066.72
2022-12-22T17:43:53.977Z,100059.13
2022-12-22T17:46:22.830Z,100058.31
2022-12-22T17:48:50.672Z,100057.53
2022-12-22T17:51:21.509Z,100057.53
2022-12-22T17:53:49.349Z,100055.81
2022-12-22T17:56:22.889Z,100058.38
2022-12-22T17:58:51.091Z,100057.53
2022-12-22T18:01:23.796Z,100058.38
2022-12-22T18:03:51.777Z,100069.53
2022-12-22T18:06:21.646Z,100055.78
2022-12-22T18:08:50.135Z,100074.66
2022-12-22T18:11:18.278Z,100078.97
2022-12-22T18:13:47.126Z,100072.97
2022-12-22T18:16:17.231Z,100084.13
2022-12-22T18:18:45.374Z,100081.53
2022-12-22T18:21:18.153Z,100090.97
2022-12-22T18:23:49.979Z,100081.53
2022-12-22T18:26:22.672Z,100092.66
2022-12-22T18:28:51.856Z,100093.56
2022-12-22T18:31:20.276Z,100087.56
2022-12-22T18:33:48.148Z,100097.84
2022-12-22T18:36:19.434Z,100093.56
2022-12-22T18:38:48.871Z,100079.81
2022-12-22T18:41:21.446Z,100090.03
2022-12-22T18:43:49.228Z,100081.53
2022-12-22T18:46:18.280Z,100088.09
2022-12-22T18:48:46.190Z,100089.94
2022-12-22T18:51:18.924Z,100086.69
2022-12-22T18:53:46.570Z,100091.75
2022-12-22T18:56:15.224Z,100096.97
2022-12-22T18:58:43.444Z,100094.25
2022-12-22T19:01:20.056Z,100091.88
2022-12-22T19:03:48.590Z,100082.44
2022-12-22T19:06:18.529Z,100083.28
2022-12-22T19:08:48.274Z,100086.66
2022-12-22T19:11:17.443Z,100080.03
2022-12-22T19:13:47.578Z,100088.25
2022-12-22T19:16:17.055Z,100087.50
2022-12-22T19:18:46.172Z,100078.94
2022-12-22T19:21:14.795Z,100084.13
2022-12-22T19:23:42.192Z,100084.13
2022-12-22T19:26:20.596Z,100091.00
2022-12-22T19:28:51.987Z,100093.53
2022-12-22T19:31:23.792Z,100096.09
2022-12-22T19:33:53.997Z,100088.34
2022-12-22T19:36:25.677Z,100093.13
2022-12-22T19:39:02.755Z,100097.72
2022-12-22T19:41:37.844Z,100095.22
2022-12-22T19:44:06.261Z,100107.03
2022-12-22T19:46:35.701Z,100091.66
2022-12-22T19:49:04.639Z,100094.19
2022-12-22T19:51:32.428Z,100094.91
2022-12-22T19:53:59.863Z,100094.97
2022-12-22T19:56:29.760Z,100085.47
2022-12-22T19:58:59.865Z,100082.84
2022-12-22T20:01:27.649Z,100083.84
2022-12-22T20:03:55.929Z,100077.69
2022-12-22T20:06:24.922Z,100079.34
2022-12-22T20:08:52.338Z,100088.06
2022-12-22T20:11:21.187Z,100088.09
2022-12-22T20:13:49.028Z,100082.63
2022-12-22T20:16:17.722Z,100087.91
2022-12-22T20:18:46.651Z,100091.94
2022-12-22T20:21:25.540Z,100088.97
2022-12-22T20:23:56.272Z,100092.78
2022-12-22T20:26:26.392Z,100089.16
2022-12-22T20:28:54.490Z,100094.81
2022-12-22T20:31:24.184Z,100086.84
2022-12-22T20:33:54.829Z,100091.19
2022-12-22T20:36:26.339Z,100089.75
2022-12-22T20:38:58.474Z,100085.84
2022-12-22T20:41:26.806Z,100082.81
2022-12-22T20:43:54.648Z,100087.13
2022-12-22T20:46:24.871Z,100079.56
2022-12-22T20:48:56.045Z,100083.91
2022-12-22T20:51:25.738Z,100093.28
2022-12-22T20:53:54.655Z,100095.66
2022-12-22T20:56:26.559Z,100088.25
2022-12-22T20:58:55.004Z,100082.16
2022-12-22T21:01:23.545Z,100094.00
2022-12-22T21:03:51.431Z,100096.69
2022-12-22T21:06:27.757Z,100087.94
2022-12-22T21:08:59.020Z,100089.94
2022-12-22T21:11:27.722Z,100090.00
2022-12-22T21:13:57.231Z,100096.69
2022-12-22T21:16:27.549Z,100095.94
2022-12-22T21:18:55.900Z,100097.31
2022-12-22T21:21:23.767Z,100098.84
2022-12-22T21:23:51.449Z,100094.84
2022-12-22T21:26:24.203Z,100099.69
2022-12-22T21:28:52.935Z,100089.81
2022-12-22T21:31:21.033Z,100083.84
2022-12-22T21:33:50.314Z,100081.03
2022-12-22T21:36:22.456Z,100078.41
2022-12-22T21:38:52.929Z,100076.81
2022-12-22T21:41:42.689Z,100090.63
2022-12-22T21:44:12.394Z,100088.91
2022-12-22T21:46:40.757Z,100091.63
2022-12-22T21:49:13.744Z,100100.19
2022-12-22T21:51:41.323Z,100086.16
2022-12-22T21:54:08.758Z,100083.00
2022-12-22T21:56:37.598Z,100084.75
2022-12-22T21:59:05.175Z,100082.22
2022-12-22T22:01:33.621Z,100077.88
2022-12-22T22:04:01.248Z,100077.91
2022-12-22T22:06:28.733Z,100071.06
2022-12-22T22:08:56.193Z,100065.91
2022-12-22T22:11:26.222Z,100070.16
2022-12-22T22:13:55.097Z,100071.81
2022-12-22T22:16:22.574Z,100060.75
2022-12-22T22:18:50.814Z,100065.13
2022-12-22T22:21:18.907Z,100066.63
2022-12-22T22:23:46.387Z,100045.88
2022-12-22T22:26:13.828Z,100040.22
2022-12-22T22:28:41.221Z,100038.94
2022-12-22T22:31:13.127Z,100037.50
2022-12-22T22:33:40.586Z,100053.69
2022-12-22T22:36:09.201Z,100048.84
2022-12-22T22:38:36.753Z,100059.75
2022-12-22T22:41:04.344Z,100051.78
2022-12-22T22:43:31.765Z,100050.53
2022-12-22T22:45:59.208Z,100050.59
2022-12-22T22:48:28.093Z,100059.22
2022-12-22T22:50:55.502Z,100054.09
2022-12-22T22:53:23.005Z,100043.75
2022-12-22T22:55:50.466Z,100055.53
2022-12-22T22:58:19.105Z,100047.59
2022-12-22T23:00:47.636Z,100044.19
2022-12-22T23:03:15.378Z,100038.44
2022-12-22T23:05:45.198Z,100040.84
2022-12-22T23:08:12.683Z,100037.63
2022-12-22T23:10:42.061Z,100034.69
2022-12-22T23:13:10.279Z,100040.13
2022-12-22T23:15:37.749Z,100023.03
2022-12-22T23:18:05.526Z,100011.06
2022-12-22T23:20:33.005Z,100015.34
2022-12-22T23:23:01.771Z,100014.50
2022-12-22T23:25:29.259Z,100014.41
2022-12-22T23:27:56.853Z,99994.75
2022-12-22T23:30:24.403Z,100007.56
2022-12-22T23:32:52.081Z,100014.50
2022-12-22T23:35:19.925Z,100014.50
2022-12-22T23:37:47.370Z,99997.38
2022-12-22T23:43:04.211Z,99999.16
2022-12-22T23:45:32.294Z,99996.47
2022-12-22T23:48:00.171Z,99989.66
2022-12-22T23:50:28.456Z,99988.78
2022-12-22T23:52:55.924Z,99987.16
2022-12-22T23:55:25.135Z,99982.00
2022-12-22T23:57:53.694Z,99975.13
